Stations météo

réclame
Mon MeteoGroup
Chamonix, France (7469): Température de l'air & dewpoint: 19.11.2017 02:00:00 - 25.11.2017 02:00:00 (CET)Chamonix, France (7469): Vitesse du vent & gusts: 19.11.2017 02:00:00 - 25.11.2017 02:00:00 (CET)Chamonix, France (7469): Direction du vent: 19.11.2017 02:00:00 - 25.11.2017 02:00:00 (CET)Chamonix, France (7469): Quantités de précipitations: 19.11.2017 02:00:00 - 25.11.2017 02:00:00 (CET)
Date & Time tt [°C] td [°C] ff [km/h] ff [knt] fx [km/h] fx [knt] dd rr [mm]
25.11.2017 02:00:00 1,6 1,3 4 2 11 6 NW 0,0
25.11.2017 01:00:00 0,4 0,0 2 1 5 3 ENE -
25.11.2017 00:00:00 1,2 0,6 0 0 8 4 N 0,0
24.11.2017 23:00:00 2,0 1,3 4 2 8 4 E 0,0
24.11.2017 22:00:00 1,9 1,2 4 2 8 4 ENE 0,0
24.11.2017 21:00:00 2,0 1,3 4 2 9 5 NW 0,0
24.11.2017 20:00:00 2,2 1,5 0 0 8 4 N 0,0
24.11.2017 19:00:00 2,0 1,1 0 0 4 2 N -
24.11.2017 18:00:00 2,4 1,4 4 2 8 4 ENE 0,0
24.11.2017 17:00:00 3,3 1,7 2 1 5 3 NE 0,0
24.11.2017 16:00:00 5,0 2,5 0 0 8 4 N 0,0
24.11.2017 15:00:00 9,5 2,3 0 0 11 6 N 0,0
24.11.2017 14:00:00 8,7 4,1 0 0 8 4 N 0,0
24.11.2017 13:00:00 8,4 4,2 4 2 8 4 ESE -
24.11.2017 12:00:00 1,8 1,7 4 2 8 4 NNE 0,0
24.11.2017 11:00:00 0,8 0,5 0 0 5 3 N 0,0
24.11.2017 10:00:00 0,3 0,2 0 0 8 4 N 0,0
24.11.2017 09:00:00 -0,5 -0,6 2 1 8 4 E 0,0
24.11.2017 08:00:00 -1,5 -1,6 0 0 8 4 N 0,0
24.11.2017 07:00:00 -1,6 -1,9 2 1 8 4 E -
24.11.2017 06:00:00 -1,4 -1,7 4 2 8 4 NE 0,0
24.11.2017 05:00:00 -1,1 -1,4 4 2 9 5 NNE 0,0
24.11.2017 04:00:00 -0,8 -1,2 0 0 8 4 N 0,0
24.11.2017 03:00:00 -0,2 -0,6 4 2 9 5 N 0,0
24.11.2017 02:00:00 0,6 0,0 4 2 9 5 SE 0,0
24.11.2017 01:00:00 0,9 0,2 2 1 8 4 W -
24.11.2017 00:00:00 0,9 0,3 2 1 9 5 E 0,0
23.11.2017 23:00:00 0,5 -0,1 4 2 8 4 N 0,0
23.11.2017 22:00:00 0,6 0,0 0 0 5 3 N 0,0
23.11.2017 21:00:00 0,8 0,2 0 0 5 3 N 0,0
23.11.2017 20:00:00 0,5 -0,4 2 1 5 3 N 0,0
23.11.2017 19:00:00 1,4 0,4 2 1 8 4 SE -
23.11.2017 18:00:00 1,7 0,5 2 1 8 4 E 0,0
23.11.2017 17:00:00 2,8 1,3 2 1 8 4 ENE 0,0
23.11.2017 16:00:00 4,4 1,9 0 0 5 3 N 0,0
23.11.2017 15:00:00 7,9 2,4 0 0 5 3 N 0,0
23.11.2017 14:00:00 6,7 3,8 0 0 8 4 N 0,0
23.11.2017 13:00:00 4,3 2,6 4 2 8 4 N -
23.11.2017 12:00:00 1,4 1,3 4 2 8 4 W 0,0
23.11.2017 11:00:00 -0,8 -0,9 0 0 5 3 N 0,0
23.11.2017 10:00:00 -2,6 -2,9 2 1 8 4 NNE 0,0
23.11.2017 09:00:00 -3,5 -3,9 4 2 9 5 NNW 0,0
23.11.2017 08:00:00 -4,2 -4,6 4 2 8 4 NE 0,0
23.11.2017 07:00:00 -4,2 -4,6 2 1 5 3 NNE -
23.11.2017 06:00:00 -4,0 -4,4 5 3 9 5 E 0,0
23.11.2017 05:00:00 -4,3 -4,8 0 0 11 6 N 0,0
23.11.2017 04:00:00 -4,1 -4,6 0 0 5 3 N 0,0
23.11.2017 03:00:00 -3,8 -4,3 2 1 11 6 W 0,0
23.11.2017 02:00:00 -3,6 -4,1 4 2 8 4 WNW 0,0
23.11.2017 01:00:00 -3,3 -3,7 2 1 11 6 N -
23.11.2017 00:00:00 -3,4 -3,8 2 1 8 4 S 0,0
22.11.2017 23:00:00 -3,2 -3,6 0 0 4 2 N 0,0
22.11.2017 22:00:00 -2,8 -3,2 0 0 4 2 N 0,0
22.11.2017 21:00:00 -2,4 -2,8 0 0 8 4 N 0,0
22.11.2017 20:00:00 -2,1 -2,5 0 0 5 3 N 0,0
22.11.2017 19:00:00 -1,5 -2,1 0 0 5 3 N -
22.11.2017 18:00:00 -0,5 -1,2 0 0 5 3 N 0,0
22.11.2017 17:00:00 1,2 0,0 0 0 4 2 N 0,0
22.11.2017 16:00:00 4,4 2,3 0 0 4 2 N 0,0
22.11.2017 15:00:00 6,6 3,2 0 0 5 3 N 0,0
22.11.2017 14:00:00 7,5 4,3 2 1 4 2 E 0,0
22.11.2017 13:00:00 4,7 4,7 0 0 5 3 N -
22.11.2017 12:00:00 -1,7 -2,0 0 0 5 3 N 0,0
22.11.2017 11:00:00 -2,5 -2,8 0 0 2 1 N 0,0
22.11.2017 10:00:00 -3,3 -3,6 0 0 4 2 N 0,0
22.11.2017 09:00:00 -4,0 -4,4 0 0 4 2 N 0,0
22.11.2017 08:00:00 -4,4 -4,9 0 0 4 2 N 0,0
22.11.2017 07:00:00 -4,3 -4,8 0 0 2 1 N -
22.11.2017 06:00:00 -4,0 -4,4 0 0 2 1 N 0,0
22.11.2017 05:00:00 -3,8 -4,2 0 0 5 3 N 0,0
22.11.2017 04:00:00 -3,6 -4,0 0 0 4 2 N 0,0
22.11.2017 03:00:00 -3,3 -3,6 0 0 4 2 N 0,0
22.11.2017 02:00:00 -3,3 -3,7 0 0 4 2 N 0,0
22.11.2017 01:00:00 -3,2 -3,6 0 0 5 3 N -
22.11.2017 00:00:00 -3,1 -3,5 0 0 4 2 N 0,0
21.11.2017 23:00:00 -2,9 -3,3 2 1 5 3 E 0,0
21.11.2017 22:00:00 -2,6 -2,9 0 0 5 3 N 0,0
21.11.2017 21:00:00 -2,1 -2,4 2 1 8 4 NE 0,0
21.11.2017 20:00:00 -1,6 -1,9 4 2 8 4 E 0,0
21.11.2017 19:00:00 -1,2 -1,6 0 0 5 3 N -
21.11.2017 18:00:00 -0,4 -1,0 0 0 5 3 N 0,0
21.11.2017 17:00:00 1,0 0,0 0 0 8 4 N 0,0
21.11.2017 16:00:00 3,8 1,5 2 1 4 2 NNW 0,0
21.11.2017 15:00:00 7,4 3,8 0 0 4 2 N 0,0
21.11.2017 14:00:00 6,9 4,0 0 0 8 4 N 0,0
21.11.2017 13:00:00 0,2 0,1 4 2 8 4 E -
21.11.2017 12:00:00 -3,0 -3,3 2 1 5 3 ENE 0,0
21.11.2017 11:00:00 -3,7 -4,1 2 1 5 3 NE 0,0
21.11.2017 10:00:00 -4,3 -4,7 0 0 4 2 N 0,0
21.11.2017 09:00:00 -4,6 -5,0 4 2 5 3 NE 0,0
21.11.2017 08:00:00 -5,0 -5,5 0 0 4 2 N 0,0
21.11.2017 07:00:00 -4,9 -5,4 0 0 5 3 N -
21.11.2017 06:00:00 -4,6 -5,1 0 0 8 4 N 0,0
21.11.2017 05:00:00 -4,5 -5,0 2 1 5 3 N 0,0
21.11.2017 04:00:00 -4,4 -4,9 2 1 5 3 E 0,0
21.11.2017 03:00:00 -4,1 -4,6 0 0 4 2 N 0,0
21.11.2017 02:00:00 -3,6 -4,0 0 0 5 3 N 0,0
21.11.2017 01:00:00 -3,1 -3,5 2 1 5 3 E -
21.11.2017 00:00:00 -2,9 -3,3 0 0 4 2 N 0,0
20.11.2017 23:00:00 -3,2 -3,6 0 0 8 4 N 0,0
20.11.2017 22:00:00 -3,1 -3,5 4 2 9 5 E 0,0
20.11.2017 21:00:00 -2,9 -3,4 0 0 8 4 N 0,0
20.11.2017 20:00:00 -2,1 -2,4 4 2 5 3 ENE 0,0
20.11.2017 19:00:00 -1,9 -2,3 0 0 4 2 N -
20.11.2017 18:00:00 -1,3 -1,7 0 0 5 3 N 0,0
20.11.2017 17:00:00 -0,2 -1,2 0 0 4 2 N 0,0
20.11.2017 16:00:00 2,3 0,8 0 0 5 3 N 0,0
20.11.2017 15:00:00 3,0 1,5 0 0 5 3 N 0,0
20.11.2017 14:00:00 1,7 0,7 0 0 5 3 N 0,0
20.11.2017 13:00:00 0,5 0,2 0 0 8 4 N -
20.11.2017 12:00:00 -3,9 -4,3 0 0 4 2 N 0,0
20.11.2017 11:00:00 -4,6 -5,0 0 0 4 2 N 0,0
20.11.2017 10:00:00 -5,4 -5,9 0 0 4 2 N 0,0
20.11.2017 09:00:00 -5,5 -6,0 2 1 4 2 E 0,0
20.11.2017 08:00:00 -6,0 -6,7 2 1 5 3 E 0,0
20.11.2017 07:00:00 -5,9 -6,4 4 2 8 4 NNE -
20.11.2017 06:00:00 -6,0 -6,8 0 0 5 3 N 0,0
20.11.2017 05:00:00 -5,5 -6,2 0 0 4 2 N 0,0
20.11.2017 04:00:00 -4,8 -5,3 0 0 5 3 N 0,0
20.11.2017 03:00:00 -4,5 -5,0 2 1 4 2 N 0,0
20.11.2017 02:00:00 -4,2 -4,7 0 0 4 2 N 0,0
20.11.2017 01:00:00 -3,6 -4,0 0 0 4 2 N -
20.11.2017 00:00:00 -3,0 -3,4 2 1 5 3 NNE 0,0
19.11.2017 23:00:00 -2,4 -2,7 0 0 4 2 N 0,0
19.11.2017 22:00:00 -1,9 -2,3 0 0 4 2 N 0,0
19.11.2017 21:00:00 -1,0 -1,4 0 0 4 2 N 0,0
19.11.2017 20:00:00 -0,2 -0,6 2 1 5 3 ESE 0,0
19.11.2017 19:00:00 0,5 0,2 0 0 4 2 N -
19.11.2017 18:00:00 0,8 0,4 2 1 5 3 E 0,0
19.11.2017 17:00:00 1,4 0,7 0 0 4 2 N 0,0
19.11.2017 16:00:00 2,6 1,3 0 0 5 3 N 0,0
19.11.2017 15:00:00 2,5 1,3 0 0 8 4 N 0,2
19.11.2017 14:00:00 2,1 0,3 0 0 5 3 N 0,0
19.11.2017 13:00:00 1,6 -0,2 2 1 9 5 N -
19.11.2017 12:00:00 0,6 -0,9 4 2 8 4 NW 0,0
19.11.2017 11:00:00 0,0 -0,8 0 0 8 4 N 0,6
19.11.2017 10:00:00 -0,6 -1,2 2 1 5 3 ESE 0,4
19.11.2017 09:00:00 -1,1 -1,8 4 2 9 5 N 0,0
19.11.2017 08:00:00 -1,8 -2,4 0 0 8 4 N 0,0
19.11.2017 07:00:00 -1,8 -2,5 4 2 9 5 S -
19.11.2017 06:00:00 -2,5 -3,0 4 2 8 4 NE 0,0
19.11.2017 05:00:00 -2,7 -3,1 4 2 9 5 SE 0,0
19.11.2017 04:00:00 -3,3 -3,7 2 1 9 5 ESE 0,0
19.11.2017 03:00:00 -4,0 -4,4 0 0 8 4 N 0,0
19.11.2017 02:00:00 -4,8 -5,2 0 0 4 2 N 0,0

tt = Température de l'air
td = dewpoint
ff = Vitesse du vent
fx = gusts
dd = Direction du vent
rr = Quantités de précipitations

stations d'obs. à proximité